Time;durP1;ratioP1;P1;durP2;ratioP2;P2;SDS_P1;SDS_P2;PMS_P1;PMS_P2;Temp;Humidity;BMP_temperature;BMP_pressure;BME280_temperature;BME280_humidity;BME280_pressure;Samples;Min_cycle;Max_cycle;Signal;HPM_P1;HPM_P2
2023/02/22 00:01:41;;;;;;;11.40;7.03;;;11.60;99.90;;;;;;5117736;28;20396;-83
2023/02/22 00:04:09;;;;;;;8.27;7.47;;;11.70;99.90;;;;;;5117790;28;20176;-83
2023/02/22 00:06:34;;;;;;;7.97;7.15;;;11.70;99.90;;;;;;5117489;28;20654;-84
2023/02/22 00:09:01;;;;;;;8.70;7.37;;;11.70;99.90;;;;;;5099073;28;20208;-84
2023/02/22 00:11:27;;;;;;;9.32;7.53;;;11.70;99.90;;;;;;5117347;28;20223;-83
2023/02/22 00:13:55;;;;;;;8.90;7.07;;;11.70;99.90;;;;;;5117029;28;20278;-84
2023/02/22 00:16:22;;;;;;;8.98;6.78;;;11.70;99.90;;;;;;5117218;28;20352;-82
2023/02/22 00:18:49;;;;;;;7.85;7.05;;;11.70;99.90;;;;;;5098895;28;20196;-83
2023/02/22 00:21:16;;;;;;;8.63;6.65;;;11.70;99.90;;;;;;5098754;28;20176;-84
2023/02/22 00:23:47;;;;;;;8.13;6.93;;;11.60;99.90;;;;;;5098526;28;20215;-85
2023/02/22 00:26:19;;;;;;;7.35;6.60;;;11.60;99.90;;;;;;5098774;28;20655;-85
2023/02/22 00:28:50;;;;;;;7.82;6.70;;;11.60;99.90;;;;;;5117054;28;20263;-83
2023/02/22 00:31:17;;;;;;;7.20;6.32;;;11.50;99.90;;;;;;5098777;28;20175;-83
2023/02/22 00:33:43;;;;;;;6.88;6.18;;;11.50;99.90;;;;;;5098463;28;20196;-85
2023/02/22 00:36:11;;;;;;;7.50;6.07;;;11.40;99.90;;;;;;5098481;28;20218;-84
2023/02/22 00:38:37;;;;;;;7.93;6.30;;;11.40;99.90;;;;;;5098633;28;20621;-82
2023/02/22 00:41:03;;;;;;;6.70;5.87;;;11.40;99.90;;;;;;5116770;28;20255;-84
2023/02/22 00:43:28;;;;;;;10.90;5.93;;;11.40;99.90;;;;;;5098225;28;20823;-85
2023/02/22 00:45:54;;;;;;;6.80;6.07;;;11.50;99.90;;;;;;5098431;28;20266;-84
2023/02/22 00:48:19;;;;;;;8.13;6.70;;;11.50;99.90;;;;;;5116619;28;20732;-85
2023/02/22 00:50:47;;;;;;;6.93;6.23;;;11.50;99.90;;;;;;5116511;28;20184;-82
2023/02/22 00:53:13;;;;;;;11.43;7.55;;;11.50;99.90;;;;;;5116494;28;20556;-83
2023/02/22 00:55:38;;;;;;;7.60;6.40;;;11.40;99.90;;;;;;5116416;28;20207;-83
2023/02/22 00:58:05;;;;;;;8.80;7.90;;;11.40;99.90;;;;;;5098038;28;20230;-84
2023/02/22 01:00:35;;;;;;;8.18;6.13;;;11.40;99.90;;;;;;5098061;28;20587;-85
2023/02/22 01:03:01;;;;;;;11.80;7.40;;;11.40;99.90;;;;;;5097533;28;20291;-81
2023/02/22 01:05:28;;;;;;;7.80;7.00;;;11.40;99.90;;;;;;5116272;28;20251;-83
2023/02/22 01:07:56;;;;;;;8.02;7.10;;;11.30;99.90;;;;;;5097906;28;20195;-83
2023/02/22 01:10:24;;;;;;;7.80;7.10;;;11.30;99.90;;;;;;5116714;28;20215;-83
2023/02/22 01:12:52;;;;;;;8.15;6.80;;;11.20;99.90;;;;;;5116123;28;20210;-84
2023/02/22 01:15:23;;;;;;;9.32;7.00;;;11.20;99.90;;;;;;5097492;28;20242;-85
2023/02/22 01:17:52;;;;;;;10.25;7.30;;;11.20;99.90;;;;;;5097823;28;20192;-82
2023/02/22 01:20:21;;;;;;;7.40;6.40;;;11.20;99.90;;;;;;5116584;28;20191;-85
2023/02/22 01:22:49;;;;;;;9.02;6.97;;;11.20;99.90;;;;;;5097602;28;20196;-83
2023/02/22 01:25:18;;;;;;;7.95;7.18;;;11.10;99.90;;;;;;5116491;28;20176;-84
2023/02/22 01:27:44;;;;;;;9.32;7.40;;;11.10;99.90;;;;;;5115853;28;20188;-85
2023/02/22 01:30:12;;;;;;;9.38;6.85;;;11.00;99.90;;;;;;5097722;28;20176;-84
2023/02/22 01:32:40;;;;;;;7.63;6.47;;;11.00;99.90;;;;;;5115605;28;20187;-82
2023/02/22 01:35:17;;;;;;;8.70;6.88;;;10.90;99.90;;;;;;5097665;28;20660;-83
2023/02/22 01:37:43;;;;;;;9.30;7.45;;;10.90;99.90;;;;;;5097361;28;20691;-83
2023/02/22 01:40:15;;;;;;;8.52;7.05;;;10.80;99.90;;;;;;5116206;28;20513;-83
2023/02/22 01:42:41;;;;;;;7.70;6.90;;;10.80;99.90;;;;;;5097329;28;20631;-82
2023/02/22 01:45:52;;;;;;;7.38;6.78;;;10.70;99.90;;;;;;5116075;28;20608;-82
2023/02/22 01:48:31;;;;;;;6.80;6.20;;;10.70;99.90;;;;;;5077603;28;20207;-84
2023/02/22 01:51:36;;;;;;;8.18;6.55;;;10.60;99.90;;;;;;5097150;28;20171;-82
2023/02/22 01:54:12;;;;;;;8.32;7.10;;;10.60;99.90;;;;;;5115458;28;20252;-84
2023/02/22 01:56:40;;;;;;;10.35;7.65;;;10.60;99.90;;;;;;5115504;28;20310;-85
2023/02/22 01:59:09;;;;;;;8.85;7.85;;;10.60;99.90;;;;;;5115478;28;20172;-85
2023/02/22 02:01:37;;;;;;;8.98;7.20;;;10.60;99.90;;;;;;5115280;28;20688;-83
2023/02/22 02:04:08;;;;;;;10.70;7.75;;;10.60;99.90;;;;;;5115075;28;20253;-85
2023/02/22 02:06:35;;;;;;;11.95;8.18;;;10.60;99.90;;;;;;5096919;28;20632;-82
2023/02/22 02:09:29;;;;;;;8.90;8.00;;;10.60;99.90;;;;;;5096762;28;20203;-83
2023/02/22 02:11:59;;;;;;;10.43;7.20;;;10.60;99.90;;;;;;5115063;28;20164;-83
2023/02/22 02:14:25;;;;;;;9.43;8.02;;;10.60;99.90;;;;;;5114788;28;20231;-84
2023/02/22 02:16:54;;;;;;;9.65;7.32;;;10.50;99.90;;;;;;5096253;28;20306;-85
2023/02/22 02:19:49;;;;;;;10.45;7.97;;;10.50;99.90;;;;;;5115190;28;20221;-85
2023/02/22 02:22:33;;;;;;;10.57;8.48;;;10.50;99.90;;;;;;5114858;28;20635;-85
2023/02/22 02:25:16;;;;;;;11.10;9.02;;;10.40;99.90;;;;;;5096691;28;20175;-83
2023/02/22 02:27:50;;;;;;;9.63;8.05;;;10.40;99.90;;;;;;5114675;28;20196;-85
2023/02/22 02:30:35;;;;;;;10.25;7.72;;;10.40;99.90;;;;;;5115362;28;20180;-85
2023/02/22 02:33:31;;;;;;;10.35;8.38;;;10.40;99.90;;;;;;5096223;28;20196;-82
2023/02/22 02:36:11;;;;;;;9.75;8.63;;;10.20;99.90;;;;;;5114612;28;20192;-83
2023/02/22 02:38:53;;;;;;;12.27;8.60;;;10.20;99.90;;;;;;5114515;28;20199;-85
2023/02/22 02:41:42;;;;;;;10.63;8.55;;;10.20;99.90;;;;;;5114530;28;20171;-85
2023/02/22 02:44:16;;;;;;;10.90;8.45;;;10.20;99.90;;;;;;5114761;28;20182;-81
2023/02/22 02:46:46;;;;;;;10.85;8.57;;;10.10;99.90;;;;;;5096087;28;20183;-82
2023/02/22 02:49:15;;;;;;;8.30;7.50;;;10.10;99.90;;;;;;5114894;28;20528;-85
2023/02/22 02:51:47;;;;;;;9.57;7.97;;;10.10;99.90;;;;;;5114221;28;20176;-83
2023/02/22 02:54:14;;;;;;;10.23;8.23;;;10.00;99.90;;;;;;5096246;28;20184;-83
2023/02/22 02:56:41;;;;;;;10.20;8.80;;;10.00;99.90;;;;;;5114206;28;20222;-83
2023/02/22 02:59:29;;;;;;;10.02;8.48;;;10.00;99.90;;;;;;5096122;28;20184;-86
2023/02/22 03:02:06;;;;;;;12.25;8.40;;;10.00;99.90;;;;;;5095923;28;20316;-83
2023/02/22 03:04:58;;;;;;;10.75;8.27;;;9.90;99.90;;;;;;5114513;28;20179;-82
2023/02/22 03:07:33;;;;;;;12.35;8.82;;;9.90;99.90;;;;;;5095955;28;20219;-85
2023/02/22 03:10:07;;;;;;;9.95;8.50;;;9.90;99.90;;;;;;5095991;28;20217;-83
2023/02/22 03:12:57;;;;;;;11.20;8.50;;;9.80;99.90;;;;;;5114106;28;20195;-83
2023/02/22 03:15:50;;;;;;;11.63;9.57;;;9.80;99.90;;;;;;5095587;28;20227;-85
2023/02/22 03:18:34;;;;;;;10.70;9.10;;;9.70;99.90;;;;;;5095711;28;20664;-83
2023/02/22 03:21:04;;;;;;;11.10;9.10;;;9.70;99.90;;;;;;5095917;28;20168;-85
2023/02/22 03:23:41;;;;;;;10.18;8.68;;;9.60;99.90;;;;;;5113934;28;20235;-82
2023/02/22 03:26:18;;;;;;;11.15;8.95;;;9.60;99.90;;;;;;5114296;28;20236;-82
2023/02/22 03:28:47;;;;;;;11.98;9.30;;;9.60;99.90;;;;;;5099885;28;20207;-85
2023/02/22 03:31:19;;;;;;;14.05;9.30;;;9.60;99.90;;;;;;5099863;28;20182;-85
2023/02/22 03:34:03;;;;;;;15.40;8.90;;;9.60;99.90;;;;;;5118131;28;20230;-85
2023/02/22 03:36:33;;;;;;;10.30;7.63;;;9.50;99.90;;;;;;5099700;28;20211;-82
2023/02/22 03:39:03;;;;;;;11.75;9.13;;;9.50;99.90;;;;;;5099615;28;20207;-83
2023/02/22 03:41:30;;;;;;;14.68;9.40;;;9.50;99.90;;;;;;5117970;28;20163;-85
2023/02/22 03:44:08;;;;;;;10.55;8.70;;;9.40;99.90;;;;;;5117997;28;20660;-86
2023/02/22 03:46:36;;;;;;;15.18;9.07;;;9.40;99.90;;;;;;5117956;28;20156;-85
2023/02/22 03:49:10;;;;;;;11.98;9.00;;;9.40;99.90;;;;;;5099605;28;20203;-82
2023/02/22 03:51:37;;;;;;;11.52;8.88;;;9.30;99.90;;;;;;5117855;28;20510;-85
2023/02/22 03:54:04;;;;;;;11.93;9.38;;;9.30;99.90;;;;;;5099478;28;20200;-82
2023/02/22 03:56:36;;;;;;;10.20;8.73;;;9.30;99.90;;;;;;5099341;28;20579;-85
2023/02/22 03:59:07;;;;;;;11.13;8.55;;;9.30;99.90;;;;;;5117740;28;20537;-85
2023/02/22 04:01:34;;;;;;;10.80;8.93;;;9.30;99.90;;;;;;5099251;28;20637;-85
2023/02/22 04:03:59;;;;;;;9.77;8.77;;;9.30;99.90;;;;;;5117500;28;20249;-84
2023/02/22 04:06:26;;;;;;;12.93;8.33;;;9.30;99.90;;;;;;5099181;28;20183;-82
2023/02/22 04:08:51;;;;;;;10.95;9.40;;;9.20;99.90;;;;;;5117330;28;20195;-82
2023/02/22 04:11:17;;;;;;;11.37;8.77;;;9.10;99.90;;;;;;5117463;28;20629;-82
2023/02/22 04:13:43;;;;;;;14.63;10.03;;;9.10;99.90;;;;;;5098684;28;20204;-85
2023/02/22 04:16:08;;;;;;;12.80;9.03;;;9.10;99.90;;;;;;5098828;28;20253;-85
2023/02/22 04:18:34;;;;;;;11.90;8.80;;;9.20;99.90;;;;;;5117190;28;20256;-84
2023/02/22 04:21:00;;;;;;;11.87;9.37;;;9.20;99.90;;;;;;5117227;28;20204;-84
2023/02/22 04:23:25;;;;;;;12.43;8.87;;;9.30;99.90;;;;;;5117101;28;20547;-85
2023/02/22 04:25:51;;;;;;;10.97;8.90;;;9.40;99.90;;;;;;5098830;28;20542;-85
2023/02/22 04:28:17;;;;;;;12.57;8.97;;;9.50;99.90;;;;;;5116979;28;20206;-82
2023/02/22 04:30:44;;;;;;;11.67;9.00;;;9.50;99.90;;;;;;5116935;28;20419;-84
2023/02/22 04:33:10;;;;;;;13.30;8.90;;;9.50;99.90;;;;;;5116877;28;20416;-85
2023/02/22 04:35:36;;;;;;;11.88;8.15;;;9.50;99.90;;;;;;5098545;28;20680;-85
2023/02/22 04:38:03;;;;;;;11.50;9.63;;;9.50;99.90;;;;;;5097676;28;20195;-86
2023/02/22 04:40:29;;;;;;;10.52;8.90;;;9.40;99.90;;;;;;5116785;28;20448;-82
2023/02/22 04:42:54;;;;;;;17.70;9.63;;;9.40;99.90;;;;;;5116811;28;20219;-85
2023/02/22 04:45:20;;;;;;;12.13;9.07;;;9.40;99.90;;;;;;5117043;28;20941;-83
2023/02/22 04:47:46;;;;;;;12.70;9.40;;;9.30;99.90;;;;;;5116670;28;20698;-85
2023/02/22 04:50:12;;;;;;;18.77;9.80;;;9.30;99.90;;;;;;5117188;28;20194;-86
2023/02/22 04:52:38;;;;;;;13.60;10.57;;;9.20;99.90;;;;;;5098027;28;20207;-83
2023/02/22 04:55:04;;;;;;;11.45;9.20;;;9.20;99.90;;;;;;5116296;28;20471;-85
2023/02/22 04:57:30;;;;;;;10.60;8.80;;;9.10;99.90;;;;;;5116263;28;20253;-82
2023/02/22 04:59:56;;;;;;;10.80;9.63;;;9.20;99.90;;;;;;5116889;28;20172;-83
2023/02/22 05:02:21;;;;;;;13.50;9.90;;;9.20;99.90;;;;;;5098072;28;20661;-83
2023/02/22 05:04:47;;;;;;;12.57;10.17;;;9.20;99.90;;;;;;5116628;28;20891;-85
2023/02/22 05:07:13;;;;;;;11.33;9.50;;;9.30;99.90;;;;;;5097980;28;20203;-83
2023/02/22 05:09:38;;;;;;;15.23;10.10;;;9.20;99.90;;;;;;5097634;28;20275;-82
2023/02/22 05:12:04;;;;;;;15.77;10.73;;;9.20;99.90;;;;;;5116040;28;20208;-86
2023/02/22 05:14:30;;;;;;;11.55;9.32;;;9.30;99.90;;;;;;5097382;28;20234;-83
2023/02/22 05:16:57;;;;;;;12.03;10.20;;;9.40;99.90;;;;;;5097493;28;20207;-83
2023/02/22 05:19:23;;;;;;;12.13;9.60;;;9.40;99.90;;;;;;5116303;28;20187;-86
2023/02/22 05:21:49;;;;;;;14.88;10.20;;;9.30;99.90;;;;;;5097342;28;20179;-84
2023/02/22 05:24:15;;;;;;;13.02;10.85;;;9.20;99.90;;;;;;5097825;28;20581;-82
2023/02/22 05:26:43;;;;;;;11.27;10.07;;;9.10;99.90;;;;;;5093493;28;20702;-86
2023/02/22 05:29:09;;;;;;;15.73;11.25;;;9.00;99.90;;;;;;5077445;28;20181;-81
2023/02/22 05:31:35;;;;;;;15.80;11.60;;;8.90;99.90;;;;;;5093775;28;20643;-83
2023/02/22 05:34:00;;;;;;;13.27;10.87;;;8.80;99.90;;;;;;5093215;28;20212;-82
2023/02/22 05:36:26;;;;;;;15.17;11.53;;;8.80;99.90;;;;;;5074751;28;20295;-82
2023/02/22 05:38:53;;;;;;;14.88;11.70;;;8.70;99.90;;;;;;5075641;28;20212;-83
2023/02/22 05:41:19;;;;;;;18.95;13.65;;;8.70;99.90;;;;;;5089407;28;20172;-82
2023/02/22 05:43:45;;;;;;;20.92;14.60;;;8.70;99.90;;;;;;5074549;28;20208;-84
2023/02/22 05:46:10;;;;;;;20.40;13.50;;;8.70;99.90;;;;;;5100808;28;20299;-83
2023/02/22 05:48:36;;;;;;;19.43;14.77;;;8.70;99.90;;;;;;5114317;28;20471;-86
2023/02/22 05:51:03;;;;;;;21.80;15.60;;;8.70;99.90;;;;;;5112925;28;20172;-83
2023/02/22 05:53:29;;;;;;;21.27;15.70;;;8.70;99.90;;;;;;5113336;28;20565;-86
2023/02/22 05:55:54;;;;;;;20.75;14.30;;;8.70;99.90;;;;;;5095507;28;20222;-83
2023/02/22 05:58:21;;;;;;;17.97;15.37;;;8.70;99.90;;;;;;5093869;28;20208;-86
2023/02/22 06:00:46;;;;;;;22.23;14.57;;;8.70;99.90;;;;;;5112900;28;20180;-82
2023/02/22 06:03:12;;;;;;;26.60;18.40;;;8.70;99.90;;;;;;5093622;28;20210;-85
2023/02/22 06:05:38;;;;;;;30.20;19.77;;;8.70;99.90;;;;;;5093690;28;20179;-83
2023/02/22 06:08:05;;;;;;;27.83;17.37;;;8.70;99.90;;;;;;5111630;28;20428;-82
2023/02/22 06:10:31;;;;;;;23.13;15.57;;;8.70;99.90;;;;;;5110709;28;20179;-85
2023/02/22 06:13:06;;;;;;;25.83;17.00;;;8.70;99.90;;;;;;5129537;27;21021;-81
2023/02/22 06:15:32;;;;;;;26.65;17.90;;;8.80;99.90;;;;;;5117551;27;20229;-83
2023/02/22 06:17:59;;;;;;;29.67;17.23;;;8.90;99.90;;;;;;5109404;28;20204;-83
2023/02/22 06:20:26;;;;;;;27.63;17.25;;;8.90;99.90;;;;;;5109351;28;20772;-86
2023/02/22 06:22:55;;;;;;;29.75;19.33;;;8.90;99.90;;;;;;5109564;28;20224;-82
2023/02/22 06:25:23;;;;;;;23.08;16.05;;;9.00;99.90;;;;;;5107516;28;20182;-86
2023/02/22 06:27:49;;;;;;;23.60;16.20;;;9.00;99.90;;;;;;5108095;28;20203;-86
2023/02/22 06:30:18;;;;;;;19.57;14.70;;;9.00;99.90;;;;;;5107248;28;20172;-83
2023/02/22 06:32:44;;;;;;;22.55;16.33;;;9.10;99.90;;;;;;5109681;28;21019;-84
2023/02/22 06:35:10;;;;;;;17.57;12.70;;;9.10;99.90;;;;;;5111068;28;20168;-86
2023/02/22 06:37:37;;;;;;;17.33;12.70;;;9.20;99.90;;;;;;5108217;28;20198;-86
2023/02/22 06:40:04;;;;;;;16.40;11.45;;;9.20;99.90;;;;;;5108471;28;20709;-87
2023/02/22 06:42:30;;;;;;;16.20;10.85;;;9.30;99.90;;;;;;5105067;28;20192;-84
2023/02/22 06:44:56;;;;;;;16.90;11.47;;;9.40;99.90;;;;;;5107583;28;20187;-83
2023/02/22 06:47:21;;;;;;;16.53;11.30;;;9.50;99.90;;;;;;5105601;28;20204;-82
2023/02/22 06:49:53;;;;;;;16.43;11.43;;;9.60;99.90;;;;;;5106192;28;20180;-85
2023/02/22 06:52:19;;;;;;;17.85;12.48;;;9.70;99.90;;;;;;5107359;28;20349;-83
2023/02/22 06:54:45;;;;;;;15.10;11.40;;;9.70;99.90;;;;;;5105486;28;20661;-86
2023/02/22 06:57:10;;;;;;;16.00;12.80;;;9.80;99.90;;;;;;5107634;28;20200;-86
2023/02/22 06:59:36;;;;;;;15.50;10.57;;;9.90;99.90;;;;;;5108107;28;20358;-85
2023/02/22 07:02:02;;;;;;;18.23;11.60;;;10.00;99.90;;;;;;5109233;28;20648;-85
2023/02/22 07:04:28;;;;;;;12.52;10.00;;;10.10;99.90;;;;;;5108582;28;20172;-85
2023/02/22 07:06:54;;;;;;;17.23;13.13;;;10.20;99.90;;;;;;5110084;28;20175;-84
2023/02/22 07:09:21;;;;;;;16.43;11.40;;;10.30;99.90;;;;;;5109553;28;20191;-82
2023/02/22 07:11:46;;;;;;;21.08;13.50;;;10.40;99.90;;;;;;5107613;28;20239;-86
2023/02/22 07:14:12;;;;;;;19.37;14.23;;;10.60;99.90;;;;;;5107808;28;20168;-84
2023/02/22 07:16:38;;;;;;;18.80;12.20;;;10.70;99.90;;;;;;5088108;28;20539;-84
2023/02/22 07:19:04;;;;;;;15.67;12.57;;;10.90;99.90;;;;;;5104608;28;20221;-86
2023/02/22 07:21:29;;;;;;;14.33;10.77;;;11.10;99.90;;;;;;5104153;28;20218;-85
2023/02/22 07:23:57;;;;;;;14.13;10.97;;;11.20;99.90;;;;;;5094385;28;20502;-84
2023/02/22 07:26:24;;;;;;;13.07;10.25;;;11.40;99.90;;;;;;5092911;28;20188;-86
2023/02/22 07:29:00;;;;;;;13.48;11.50;;;11.50;99.90;;;;;;5083683;28;20727;-84
2023/02/22 07:31:26;;;;;;;13.35;10.80;;;11.70;99.90;;;;;;5089421;28;20224;-86
2023/02/22 07:33:52;;;;;;;12.73;9.63;;;11.90;99.90;;;;;;5090674;28;20609;-83
2023/02/22 07:36:18;;;;;;;12.10;9.60;;;12.00;99.90;;;;;;5091262;28;20187;-86
2023/02/22 07:38:44;;;;;;;12.05;9.57;;;12.20;99.90;;;;;;5092899;28;20211;-83
2023/02/22 07:41:10;;;;;;;13.30;9.80;;;12.30;99.90;;;;;;5090233;28;20185;-84
2023/02/22 07:43:36;;;;;;;14.35;9.40;;;12.50;99.90;;;;;;5086598;28;20213;-83
2023/02/22 07:46:02;;;;;;;12.63;10.33;;;12.70;99.90;;;;;;5058973;28;20243;-83
2023/02/22 07:48:30;;;;;;;13.00;10.10;;;12.90;99.90;;;;;;5065874;28;20299;-84
2023/02/22 07:50:56;;;;;;;15.07;11.43;;;13.00;99.90;;;;;;5063123;28;20739;-84
2023/02/22 07:53:29;;;;;;;12.03;10.00;;;13.10;99.90;;;;;;5061725;28;21187;-83
2023/02/22 07:55:56;;;;;;;9.70;8.60;;;13.40;99.90;;;;;;5061817;28;21001;-86
2023/02/22 07:58:24;;;;;;;12.00;10.43;;;13.60;99.90;;;;;;5061222;28;20567;-86
2023/02/22 08:00:49;;;;;;;11.80;8.63;;;13.80;99.90;;;;;;5074823;28;20443;-86
2023/02/22 08:03:17;;;;;;;13.23;10.27;;;14.00;99.90;;;;;;5092493;28;20445;-85
2023/02/22 08:05:49;;;;;;;11.70;9.73;;;14.50;99.90;;;;;;5091839;28;20168;-86
2023/02/22 08:08:16;;;;;;;10.33;9.23;;;15.10;99.90;;;;;;5091374;28;20506;-85
2023/02/22 08:10:43;;;;;;;10.20;8.93;;;15.80;99.90;;;;;;5093600;28;20409;-84
2023/02/22 08:13:09;;;;;;;11.10;9.70;;;16.60;99.90;;;;;;5093799;28;21024;-84
2023/02/22 08:15:37;;;;;;;11.73;10.23;;;17.40;99.90;;;;;;5092192;28;20521;-84
2023/02/22 08:18:09;;;;;;;9.13;7.83;;;18.20;99.90;;;;;;5091354;28;20433;-86
2023/02/22 08:20:36;;;;;;;9.70;8.70;;;19.00;99.90;;;;;;5093031;28;20597;-84
2023/02/22 08:23:03;;;;;;;10.90;9.27;;;19.90;99.90;;;;;;5093211;28;20442;-86
2023/02/22 08:25:29;;;;;;;10.17;8.43;;;20.80;99.90;;;;;;5091878;28;20433;-85
2023/02/22 08:28:01;;;;;;;9.40;8.43;;;21.60;99.40;;;;;;5091155;28;20969;-85
2023/02/22 08:30:29;;;;;;;9.57;7.70;;;22.20;97.30;;;;;;5089431;28;20425;-84
2023/02/22 08:32:54;;;;;;;10.77;8.90;;;22.90;95.60;;;;;;5091457;28;20484;-86
2023/02/22 08:35:21;;;;;;;10.20;8.43;;;23.40;94.30;;;;;;5092317;28;20492;-85
2023/02/22 08:37:49;;;;;;;9.67;8.33;;;23.90;92.70;;;;;;5070759;28;20209;-87
2023/02/22 08:40:16;;;;;;;9.97;8.10;;;24.30;91.60;;;;;;5072728;28;20524;-86
2023/02/22 08:42:43;;;;;;;9.57;8.67;;;24.70;91.00;;;;;;5076247;28;20468;-85
2023/02/22 08:45:10;;;;;;;10.37;8.00;;;25.30;90.20;;;;;;5078094;28;21045;-86
2023/02/22 08:47:36;;;;;;;9.70;8.80;;;25.80;87.50;;;;;;5082352;28;20460;-86
2023/02/22 08:50:01;;;;;;;8.47;7.60;;;26.10;84.80;;;;;;5087111;28;20435;-86
2023/02/22 08:52:27;;;;;;;8.73;7.80;;;26.30;84.20;;;;;;5077997;28;20228;-86
2023/02/22 08:54:54;;;;;;;9.27;7.80;;;26.90;82.30;;;;;;5078370;28;20202;-85
2023/02/22 08:57:20;;;;;;;8.80;8.00;;;27.20;81.10;;;;;;5074889;28;20216;-85
2023/02/22 08:59:46;;;;;;;8.33;7.53;;;27.60;79.80;;;;;;5078870;28;20484;-82
2023/02/22 09:02:17;;;;;;;8.97;7.70;;;28.00;78.60;;;;;;5088412;28;20846;-84
2023/02/22 09:04:43;;;;;;;8.10;6.70;;;28.50;77.20;;;;;;5070239;28;20184;-83
2023/02/22 09:07:09;;;;;;;8.83;7.93;;;29.00;75.20;;;;;;5090132;28;20482;-84
2023/02/22 09:09:35;;;;;;;7.93;7.23;;;29.40;74.10;;;;;;5111524;27;20460;-83
2023/02/22 09:12:01;;;;;;;8.50;7.10;;;29.70;72.70;;;;;;5077980;28;20917;-83
2023/02/22 09:14:27;;;;;;;9.63;7.77;;;29.50;72.60;;;;;;5067081;28;20555;-84
2023/02/22 09:16:53;;;;;;;9.40;7.23;;;29.50;72.00;;;;;;5055052;28;20988;-84
2023/02/22 09:19:19;;;;;;;9.30;8.40;;;29.50;71.40;;;;;;5075821;28;20177;-82
2023/02/22 09:21:44;;;;;;;9.40;8.50;;;29.60;70.70;;;;;;5079266;28;20662;-84
2023/02/22 09:24:10;;;;;;;8.90;8.00;;;29.50;70.00;;;;;;5083807;28;20180;-82
2023/02/22 09:26:41;;;;;;;9.07;8.27;;;29.50;70.30;;;;;;5080331;28;20187;-83
2023/02/22 09:29:10;;;;;;;8.70;7.80;;;29.70;69.60;;;;;;5067863;28;20476;-84
2023/02/22 09:31:40;;;;;;;8.63;7.77;;;29.80;69.90;;;;;;5084573;28;20481;-83
2023/02/22 09:34:12;;;;;;;9.33;8.23;;;30.00;69.40;;;;;;5085604;28;20457;-83
2023/02/22 09:36:45;;;;;;;9.30;8.20;;;29.90;69.20;;;;;;5088005;28;20519;-83
2023/02/22 09:39:14;;;;;;;9.47;8.57;;;29.40;69.40;;;;;;5072694;28;20442;-85
2023/02/22 09:42:02;;;;;;;8.13;7.33;;;29.30;70.00;;;;;;5074983;28;20495;-85
2023/02/22 09:44:52;;;;;;;8.60;7.80;;;29.00;69.80;;;;;;5064670;28;20438;-85
2023/02/22 09:47:31;;;;;;;7.43;6.83;;;28.90;70.00;;;;;;5091251;27;20471;-84
2023/02/22 09:50:01;;;;;;;9.00;7.40;;;28.90;69.50;;;;;;5076772;28;20990;-84
2023/02/22 09:52:52;;;;;;;8.60;7.30;;;29.10;69.10;;;;;;5083873;28;20579;-85
2023/02/22 09:55:40;;;;;;;11.40;8.00;;;29.10;68.90;;;;;;5076917;28;20453;-85
2023/02/22 09:58:14;;;;;;;8.13;7.33;;;28.80;69.20;;;;;;5081943;28;20448;-85
2023/02/22 10:00:42;;;;;;;8.67;7.90;;;28.90;69.30;;;;;;5072001;28;20420;-85
2023/02/22 10:03:35;;;;;;;8.37;7.10;;;28.90;68.90;;;;;;5073272;28;20429;-85
2023/02/22 10:06:08;;;;;;;7.73;7.00;;;29.00;68.20;;;;;;5081904;28;20428;-85
2023/02/22 10:08:37;;;;;;;9.83;8.80;;;29.20;68.10;;;;;;5080112;28;20438;-84
2023/02/22 10:11:21;;;;;;;9.77;8.87;;;29.20;67.80;;;;;;5062986;28;20469;-84
2023/02/22 10:14:02;;;;;;;9.60;8.07;;;28.90;68.00;;;;;;5073283;28;21008;-84
2023/02/22 10:16:47;;;;;;;9.57;8.30;;;28.40;68.30;;;;;;5088297;28;20417;-84
2023/02/22 10:19:41;;;;;;;9.40;8.30;;;27.70;69.10;;;;;;5087504;28;21149;-84
2023/02/22 10:22:26;;;;;;;9.50;8.60;;;26.90;70.60;;;;;;5086592;28;20669;-84
2023/02/22 10:25:11;;;;;;;9.80;8.67;;;25.90;71.60;;;;;;5090610;28;20408;-83
2023/02/22 10:28:02;;;;;;;10.30;8.70;;;25.30;72.30;;;;;;5092339;28;20448;-84
2023/02/22 10:30:37;;;;;;;9.80;8.90;;;24.40;73.70;;;;;;5092886;28;20932;-83
2023/02/22 10:33:19;;;;;;;9.67;8.67;;;23.70;75.20;;;;;;5089441;28;20477;-84
2023/02/22 10:35:45;;;;;;;10.77;9.70;;;23.20;76.30;;;;;;5086414;28;20418;-84
2023/02/22 10:38:22;;;;;;;9.27;8.47;;;22.80;77.80;;;;;;5088131;28;20474;-84
2023/02/22 10:41:02;;;;;;;10.13;8.77;;;22.40;77.60;;;;;;5078790;28;20497;-83
2023/02/22 10:43:29;;;;;;;17.50;13.93;;;22.10;78.30;;;;;;5086801;28;20457;-83
2023/02/22 10:46:02;;;;;;;11.13;10.00;;;21.90;79.00;;;;;;5086026;28;20494;-83
2023/02/22 10:48:31;;;;;;;9.70;8.40;;;21.80;79.00;;;;;;5081809;28;21078;-84
2023/02/22 10:51:02;;;;;;;12.33;11.00;;;21.80;80.20;;;;;;5084345;28;20443;-84
2023/02/22 10:53:29;;;;;;;15.20;12.93;;;21.80;80.70;;;;;;5090339;28;20562;-83
2023/02/22 10:56:04;;;;;;;10.87;9.73;;;21.70;80.50;;;;;;5090698;28;20428;-83
2023/02/22 10:58:47;;;;;;;15.70;9.50;;;21.60;80.90;;;;;;5083118;28;20440;-84
2023/02/22 11:01:31;;;;;;;12.77;9.60;;;21.60;81.10;;;;;;5073687;28;20438;-84
2023/02/22 11:03:57;;;;;;;10.37;9.30;;;21.50;81.00;;;;;;5089250;28;20452;-83
2023/02/22 11:06:23;;;;;;;14.43;8.87;;;21.30;80.70;;;;;;5094310;28;20881;-84
2023/02/22 11:08:50;;;;;;;10.27;9.20;;;21.30;81.50;;;;;;5082334;28;20540;-83
2023/02/22 11:11:28;;;;;;;11.40;8.47;;;21.30;81.60;;;;;;5083767;28;20244;-83
2023/02/22 11:13:59;;;;;;;11.27;9.10;;;21.30;81.70;;;;;;5084577;28;20963;-84
2023/02/22 11:16:39;;;;;;;9.90;8.87;;;21.30;81.50;;;;;;5090030;28;20433;-84
2023/02/22 11:19:08;;;;;;;9.60;8.60;;;21.10;81.70;;;;;;5084846;28;20442;-83
2023/02/22 11:21:37;;;;;;;9.43;8.17;;;21.00;82.50;;;;;;5089241;28;20518;-83
2023/02/22 11:24:09;;;;;;;10.90;9.80;;;20.90;82.50;;;;;;5089771;28;20449;-84
2023/02/22 11:26:42;;;;;;;10.10;8.93;;;20.80;83.00;;;;;;5085750;28;20432;-84
2023/02/22 11:29:32;;;;;;;9.97;9.07;;;20.70;83.10;;;;;;5081721;28;20972;-84
2023/02/22 11:32:23;;;;;;;9.20;8.23;;;20.50;83.80;;;;;;5086516;28;20506;-82
2023/02/22 11:34:51;;;;;;;10.80;9.43;;;20.50;85.00;;;;;;5079616;28;20433;-84
2023/02/22 11:37:32;;;;;;;9.37;8.47;;;20.60;84.30;;;;;;5079436;28;20448;-84
2023/02/22 11:40:04;;;;;;;9.17;8.13;;;20.80;84.80;;;;;;5082733;28;20988;-82
2023/02/22 11:42:29;;;;;;;9.07;8.10;;;20.90;84.10;;;;;;5083332;28;20466;-83
2023/02/22 11:45:09;;;;;;;9.00;7.40;;;21.00;82.60;;;;;;5088435;28;20417;-84
2023/02/22 11:47:45;;;;;;;9.10;8.10;;;20.90;81.90;;;;;;5080702;28;20248;-84
2023/02/22 11:50:24;;;;;;;9.30;7.70;;;20.80;82.10;;;;;;5073490;28;20425;-82
2023/02/22 11:53:00;;;;;;;10.13;8.23;;;20.70;82.10;;;;;;5082815;28;20481;-83
2023/02/22 11:55:38;;;;;;;8.03;6.97;;;20.70;82.60;;;;;;5080331;28;20429;-84
2023/02/22 11:58:12;;;;;;;9.30;7.03;;;20.70;83.80;;;;;;5076039;28;20449;-83
2023/02/22 12:00:48;;;;;;;7.07;6.23;;;20.70;82.60;;;;;;5081652;28;20433;-83
2023/02/22 12:03:33;;;;;;;8.30;7.53;;;20.80;82.60;;;;;;5081956;28;20452;-83
2023/02/22 12:06:05;;;;;;;8.00;7.30;;;20.90;82.80;;;;;;5078642;28;20658;-83
2023/02/22 12:08:34;;;;;;;8.67;7.87;;;20.90;82.70;;;;;;5087027;28;21065;-84
2023/02/22 12:11:08;;;;;;;9.63;8.37;;;20.90;83.20;;;;;;5089196;28;20507;-83
2023/02/22 12:13:57;;;;;;;9.50;8.70;;;20.90;83.10;;;;;;5091010;28;20808;-84
2023/02/22 12:16:37;;;;;;;10.37;7.40;;;21.00;83.70;;;;;;5086805;28;20464;-83
2023/02/22 12:19:27;;;;;;;6.83;6.17;;;21.00;84.00;;;;;;5087447;28;20448;-83
2023/02/22 12:21:58;;;;;;;10.10;8.07;;;21.00;82.00;;;;;;5086134;28;20450;-84
2023/02/22 12:24:34;;;;;;;7.53;6.70;;;21.00;81.60;;;;;;5089436;28;20534;-82
2023/02/22 12:27:08;;;;;;;7.73;7.03;;;20.80;83.10;;;;;;5105064;28;20455;-84
2023/02/22 12:30:07;;;;;;;7.87;7.07;;;20.70;82.20;;;;;;5083828;28;20433;-83
2023/02/22 12:32:40;;;;;;;13.83;11.90;;;20.50;81.60;;;;;;5083192;28;20518;-83
2023/02/22 12:35:34;;;;;;;8.47;7.67;;;20.40;82.60;;;;;;5088831;28;20435;-83
2023/02/22 12:38:11;;;;;;;8.30;6.80;;;20.50;83.20;;;;;;5085250;28;20464;-83
2023/02/22 12:40:40;;;;;;;5.83;5.30;;;20.50;83.20;;;;;;5087043;28;20774;-82
2023/02/22 12:43:28;;;;;;;5.57;4.80;;;20.70;83.00;;;;;;5089621;28;20510;-84
2023/02/22 12:45:59;;;;;;;5.10;4.70;;;20.70;82.10;;;;;;5081465;28;20455;-83
2023/02/22 12:48:39;;;;;;;3.80;3.50;;;20.80;81.60;;;;;;5090136;28;20995;-83
2023/02/22 12:51:19;;;;;;;3.67;3.37;;;20.90;80.50;;;;;;5088955;28;20440;-84
2023/02/22 12:54:05;;;;;;;5.57;4.53;;;21.00;80.50;;;;;;5089518;28;20452;-84
2023/02/22 12:56:35;;;;;;;5.83;5.33;;;21.00;80.70;;;;;;5063736;28;20437;-84
2023/02/22 12:59:29;;;;;;;5.73;5.23;;;21.10;80.90;;;;;;5086462;28;20482;-82
2023/02/22 13:01:59;;;;;;;6.00;5.40;;;21.10;80.40;;;;;;5082690;28;20531;-85
2023/02/22 13:04:25;;;;;;;6.10;5.50;;;21.00;80.80;;;;;;5076940;28;20429;-83